Check out our new PWSWeather beta!
PWSweather.com
Personal Weather Stations
Station Observations
PICKERING
North Yorkshire, PickeringGB

North YorkshirePickeringGB

Lat: 54.2494, Lon: -0.7725

Elevation: 192

Station Type: Oregon Scientific WMR100

High Low Average
Temperature 45.7°F7.6°C 34.0°F1.1°C 39.4°F4.1°C
Dew Point 41.0°F5.0°C 30.2°F-1.0°C 36.0°F2.2°C
Winds 21.4 mph 34.4 kmh Calm Calm 6.0 mph N9.7 kmh N
Wind Gusts 32.9 mph52.9 kmh -- 8.0 mph12.9 kmh
Humidity 88% 82% 86%
Pressure 29.89 in1012.2 mb 29.03 in983.1 mb -
Precipitation 0.13 in3.3 mm - -
Hour Temp Dew Point Humidity Winds Wind Gusts Pressure Precip Precip Rate Daily Precip Total
12:00 AM 34.9°F1.6°C 32.0°F0.0°C 86% 0.4 mph ENE0.6 kmh ENE 2.5 mph4.0 kmh 29.89 in1012.2 mb 0.00 in0.0 mm 0.00 in0.0 mm 0.00 in0.0 mm
12:10 AM 34.9°F1.6°C 32.0°F0.0°C 86% 0.8 mph ENE1.3 kmh ENE 2.7 mph4.3 kmh 29.89 in1012.2 mb 0.00 in0.0 mm 0.00 in0.0 mm 0.00 in0.0 mm
12:20 AM 34.5°F1.4°C 30.2°F-1.0°C 86% 0.1 mph N0.2 kmh N 1.6 mph2.6 kmh 29.89 in1012.2 mb 0.00 in0.0 mm 0.00 in0.0 mm 0.00 in0.0 mm
12:30 AM 35.1°F1.7°C 32.0°F0.0°C 86% Calm Calm -- 29.89 in1012.2 mb 0.00 in0.0 mm 0.00 in0.0 mm 0.00 in0.0 mm
12:40 AM 35.1°F1.7°C 32.0°F0.0°C 87% 0.6 mph N1.0 kmh N 2.5 mph4.0 kmh 29.89 in1012.2 mb 0.00 in0.0 mm 0.00 in0.0 mm 0.00 in0.0 mm
12:50 AM 34.7°F1.5°C 32.0°F0.0°C 86% 0.1 mph N0.2 kmh N 0.9 mph1.4 kmh 29.89 in1012.2 mb 0.00 in0.0 mm 0.00 in0.0 mm 0.00 in0.0 mm
01:00 AM 34.5°F1.4°C 30.2°F-1.0°C 86% Calm Calm -- 29.89 in1012.2 mb 0.00 in0.0 mm 0.00 in0.0 mm 0.00 in0.0 mm
01:10 AM 34.5°F1.4°C 30.2°F-1.0°C 86% 0.4 mph N0.6 kmh N 2.5 mph4.0 kmh 29.86 in1011.2 mb 0.00 in0.0 mm 0.00 in0.0 mm 0.00 in0.0 mm
01:20 AM 35.2°F1.8°C 32.0°F0.0°C 87% 1.6 mph N2.6 kmh N 2.7 mph4.3 kmh 29.86 in1011.2 mb 0.00 in0.0 mm 0.00 in0.0 mm 0.00 in0.0 mm
01:30 AM 35.4°F1.9°C 32.0°F0.0°C 87% 2.9 mph N4.7 kmh N 6.0 mph9.7 kmh 29.86 in1011.2 mb 0.00 in0.0 mm 0.00 in0.0 mm 0.00 in0.0 mm
01:40 AM 35.6°F2.0°C 33.8°F1.0°C 87% 2.4 mph N3.9 kmh N 4.3 mph6.9 kmh 29.86 in1011.2 mb 0.00 in0.0 mm 0.00 in0.0 mm 0.00 in0.0 mm
01:50 AM 35.8°F2.1°C 33.8°F1.0°C 87% 2.5 mph N4.0 kmh N 3.6 mph5.8 kmh 29.86 in1011.2 mb 0.00 in0.0 mm 0.00 in0.0 mm 0.00 in0.0 mm
02:00 AM 35.6°F2.0°C 33.8°F1.0°C 87% 2.0 mph N3.2 kmh N 4.0 mph6.4 kmh 29.86 in1011.2 mb 0.00 in0.0 mm 0.00 in0.0 mm 0.00 in0.0 mm
02:10 AM 35.2°F1.8°C 32.0°F0.0°C 86% 0.4 mph N0.6 kmh N 2.5 mph4.0 kmh 29.86 in1011.2 mb 0.00 in0.0 mm 0.00 in0.0 mm 0.00 in0.0 mm
02:20 AM 35.2°F1.8°C 32.0°F0.0°C 87% 0.2 mph N0.3 kmh N 2.7 mph4.3 kmh 29.83 in1010.2 mb 0.00 in0.0 mm 0.00 in0.0 mm 0.00 in0.0 mm
02:30 AM 34.7°F1.5°C 32.0°F0.0°C 87% Calm Calm -- 29.83 in1010.2 mb 0.00 in0.0 mm 0.00 in0.0 mm 0.00 in0.0 mm
02:40 AM 34.7°F1.5°C 32.0°F0.0°C 87% 1.5 mph NNE2.4 kmh NNE 2.9 mph4.7 kmh 29.83 in1010.2 mb 0.00 in0.0 mm 0.00 in0.0 mm 0.00 in0.0 mm
02:50 AM 34.2°F1.2°C 32.0°F0.0°C 87% 0.4 mph NNE0.6 kmh NNE 1.1 mph1.8 kmh 29.83 in1010.2 mb 0.00 in0.0 mm 0.00 in0.0 mm 0.00 in0.0 mm
03:00 AM 34.5°F1.4°C 32.0°F0.0°C 87% Calm Calm -- 29.83 in1010.2 mb 0.00 in0.0 mm 0.00 in0.0 mm 0.00 in0.0 mm
03:10 AM 34.5°F1.4°C 32.0°F0.0°C 87% 0.1 mph N0.2 kmh N 0.9 mph1.4 kmh 29.83 in1010.2 mb 0.00 in0.0 mm 0.00 in0.0 mm 0.00 in0.0 mm
03:20 AM 34.5°F1.4°C 32.0°F0.0°C 87% Calm Calm -- 29.83 in1010.2 mb 0.00 in0.0 mm 0.00 in0.0 mm 0.00 in0.0 mm
03:30 AM 34.3°F1.3°C 32.0°F0.0°C 87% Calm Calm -- 29.83 in1010.2 mb 0.00 in0.0 mm 0.00 in0.0 mm 0.00 in0.0 mm
03:40 AM 34.3°F1.3°C 32.0°F0.0°C 87% 0.6 mph N1.0 kmh N 2.9 mph4.7 kmh 29.83 in1010.2 mb 0.00 in0.0 mm 0.00 in0.0 mm 0.00 in0.0 mm
03:50 AM 34.3°F1.3°C 32.0°F0.0°C 87% 2.5 mph N4.0 kmh N 3.1 mph5.0 kmh 29.80 in1009.1 mb 0.00 in0.0 mm 0.00 in0.0 mm 0.00 in0.0 mm
04:00 AM 34.0°F1.1°C 30.2°F-1.0°C 87% 2.4 mph N3.9 kmh N 3.1 mph5.0 kmh 29.80 in1009.1 mb 0.00 in0.0 mm 0.00 in0.0 mm 0.00 in0.0 mm
04:10 AM 34.5°F1.4°C 32.0°F0.0°C 87% 2.7 mph N4.3 kmh N 3.4 mph5.5 kmh 29.80 in1009.1 mb 0.00 in0.0 mm 0.00 in0.0 mm 0.00 in0.0 mm
04:20 AM 34.3°F1.3°C 32.0°F0.0°C 87% 2.5 mph N4.0 kmh N 3.8 mph6.1 kmh 29.80 in1009.1 mb 0.00 in0.0 mm 0.00 in0.0 mm 0.00 in0.0 mm
04:30 AM 34.3°F1.3°C 32.0°F0.0°C 87% 2.2 mph N3.5 kmh N 3.8 mph6.1 kmh 29.80 in1009.1 mb 0.00 in0.0 mm 0.00 in0.0 mm 0.00 in0.0 mm
04:40 AM 34.5°F1.4°C 32.0°F0.0°C 88% 2.8 mph N4.5 kmh N 4.3 mph6.9 kmh 29.80 in1009.1 mb 0.00 in0.0 mm 0.00 in0.0 mm 0.00 in0.0 mm
04:50 AM 34.3°F1.3°C 32.0°F0.0°C 88% 2.9 mph N4.7 kmh N 3.6 mph5.8 kmh 29.80 in1009.1 mb 0.00 in0.0 mm 0.00 in0.0 mm 0.00 in0.0 mm
05:00 AM 34.7°F1.5°C 32.0°F0.0°C 88% 3.2 mph N5.1 kmh N 3.4 mph5.5 kmh 29.80 in1009.1 mb 0.00 in0.0 mm 0.00 in0.0 mm 0.00 in0.0 mm
05:10 AM 34.9°F1.6°C 32.0°F0.0°C 88% 4.1 mph N6.6 kmh N 5.4 mph8.7 kmh 29.77 in1008.1 mb 0.00 in0.0 mm 0.00 in0.0 mm 0.00 in0.0 mm
05:20 AM 34.9°F1.6°C 32.0°F0.0°C 88% 3.2 mph N5.1 kmh N 4.3 mph6.9 kmh 29.77 in1008.1 mb 0.00 in0.0 mm 0.00 in0.0 mm 0.00 in0.0 mm
05:30 AM 34.9°F1.6°C 32.0°F0.0°C 87% 4.0 mph N6.4 kmh N 4.3 mph6.9 kmh 29.77 in1008.1 mb 0.00 in0.0 mm 0.00 in0.0 mm 0.00 in0.0 mm
05:40 AM 34.9°F1.6°C 32.0°F0.0°C 87% 4.3 mph N6.9 kmh N 5.8 mph9.3 kmh 29.77 in1008.1 mb 0.00 in0.0 mm 0.00 in0.0 mm 0.00 in0.0 mm
05:50 AM 34.9°F1.6°C 32.0°F0.0°C 87% 5.0 mph N8.0 kmh N 8.7 mph14.0 kmh 29.74 in1007.1 mb 0.00 in0.0 mm 0.00 in0.0 mm 0.00 in0.0 mm
06:00 AM 35.1°F1.7°C 32.0°F0.0°C 87% 4.8 mph N7.7 kmh N 6.5 mph10.5 kmh 29.74 in1007.1 mb 0.00 in0.0 mm 0.00 in0.0 mm 0.00 in0.0 mm
06:10 AM 35.2°F1.8°C 32.0°F0.0°C 87% 5.1 mph N8.2 kmh N 7.2 mph11.6 kmh 29.74 in1007.1 mb 0.00 in0.0 mm 0.00 in0.0 mm 0.00 in0.0 mm
06:20 AM 35.2°F1.8°C 32.0°F0.0°C 87% 3.8 mph N6.1 kmh N 6.3 mph10.1 kmh 29.74 in1007.1 mb 0.00 in0.0 mm 0.00 in0.0 mm 0.00 in0.0 mm
06:30 AM 35.2°F1.8°C 32.0°F0.0°C 87% 3.6 mph N5.8 kmh N 7.8 mph12.6 kmh 29.74 in1007.1 mb 0.00 in0.0 mm 0.00 in0.0 mm 0.00 in0.0 mm
06:40 AM 35.4°F1.9°C 32.0°F0.0°C 87% 3.7 mph N6.0 kmh N 7.4 mph11.9 kmh 29.74 in1007.1 mb 0.00 in0.0 mm 0.00 in0.0 mm 0.00 in0.0 mm
06:50 AM 35.6°F2.0°C 33.8°F1.0°C 87% 3.5 mph N5.6 kmh N 7.4 mph11.9 kmh 29.74 in1007.1 mb 0.00 in0.0 mm 0.00 in0.0 mm 0.00 in0.0 mm
07:00 AM 35.6°F2.0°C 33.8°F1.0°C 87% 3.1 mph N5.0 kmh N 4.9 mph7.9 kmh 29.74 in1007.1 mb 0.00 in0.0 mm 0.00 in0.0 mm 0.00 in0.0 mm
07:10 AM 35.8°F2.1°C 33.8°F1.0°C 88% 2.7 mph N4.3 kmh N 5.8 mph9.3 kmh 29.74 in1007.1 mb 0.00 in0.0 mm 0.00 in0.0 mm 0.00 in0.0 mm
07:20 AM 35.8°F2.1°C 33.8°F1.0°C 88% 2.4 mph N3.9 kmh N 4.0 mph6.4 kmh 29.74 in1007.1 mb 0.00 in0.0 mm 0.00 in0.0 mm 0.00 in0.0 mm
07:30 AM 35.6°F2.0°C 33.8°F1.0°C 88% 2.4 mph N3.9 kmh N 4.0 mph6.4 kmh 29.74 in1007.1 mb 0.00 in0.0 mm 0.00 in0.0 mm 0.00 in0.0 mm
07:40 AM 35.6°F2.0°C 33.8°F1.0°C 88% 3.0 mph N4.8 kmh N 6.0 mph9.7 kmh 29.74 in1007.1 mb 0.00 in0.0 mm 0.00 in0.0 mm 0.00 in0.0 mm
07:50 AM 35.6°F2.0°C 33.8°F1.0°C 88% 4.4 mph N7.1 kmh N 6.0 mph9.7 kmh 29.74 in1007.1 mb 0.00 in0.0 mm 0.00 in0.0 mm 0.00 in0.0 mm
08:00 AM 36.0°F2.2°C 33.8°F1.0°C 88% 5.3 mph N8.5 kmh N 8.5 mph13.7 kmh 29.74 in1007.1 mb 0.00 in0.0 mm 0.00 in0.0 mm 0.00 in0.0 mm
08:10 AM 36.1°F2.3°C 33.8°F1.0°C 88% 4.4 mph N7.1 kmh N 8.5 mph13.7 kmh 29.71 in1006.1 mb 0.00 in0.0 mm 0.00 in0.0 mm 0.00 in0.0 mm
08:20 AM 36.3°F2.4°C 33.8°F1.0°C 88% 5.9 mph N9.5 kmh N 9.8 mph15.8 kmh 29.71 in1006.1 mb 0.00 in0.0 mm 0.00 in0.0 mm 0.00 in0.0 mm
08:40 AM 36.7°F2.6°C 33.8°F1.0°C 88% 3.8 mph N6.1 kmh N 4.0 mph6.4 kmh 29.68 in1005.1 mb 0.00 in0.0 mm 0.00 in0.0 mm 0.00 in0.0 mm
08:50 AM 36.7°F2.6°C 33.8°F1.0°C 88% 2.7 mph N4.3 kmh N 4.0 mph6.4 kmh 29.68 in1005.1 mb 0.00 in0.0 mm 0.00 in0.0 mm 0.00 in0.0 mm
09:00 AM 37.0°F2.8°C 33.8°F1.0°C 88% 2.5 mph N4.0 kmh N 2.5 mph4.0 kmh 29.68 in1005.1 mb 0.00 in0.0 mm 0.00 in0.0 mm 0.00 in0.0 mm
09:10 AM 37.4°F3.0°C 33.8°F1.0°C 88% 2.5 mph N4.0 kmh N 2.5 mph4.0 kmh 29.65 in1004.1 mb 0.00 in0.0 mm 0.00 in0.0 mm 0.00 in0.0 mm
09:20 AM 37.8°F3.2°C 35.6°F2.0°C 88% 8.7 mph N14.0 kmh N 8.7 mph14.0 kmh 29.65 in1004.1 mb 0.00 in0.0 mm 0.00 in0.0 mm 0.00 in0.0 mm
09:30 AM 38.1°F3.4°C 35.6°F2.0°C 88% 6.6 mph N10.6 kmh N 9.6 mph15.4 kmh 29.65 in1004.1 mb 0.00 in0.0 mm 0.00 in0.0 mm 0.00 in0.0 mm
09:40 AM 38.1°F3.4°C 35.6°F2.0°C 88% 7.1 mph N11.4 kmh N 9.4 mph15.1 kmh 29.65 in1004.1 mb 0.00 in0.0 mm 0.00 in0.0 mm 0.00 in0.0 mm
09:50 AM 38.3°F3.5°C 35.6°F2.0°C 88% 5.7 mph N9.2 kmh N 6.5 mph10.5 kmh 29.65 in1004.1 mb 0.00 in0.0 mm 0.00 in0.0 mm 0.00 in0.0 mm
10:00 AM 38.5°F3.6°C 35.6°F2.0°C 88% 5.4 mph N8.7 kmh N 5.6 mph9.0 kmh 29.65 in1004.1 mb 0.00 in0.0 mm 0.00 in0.0 mm 0.00 in0.0 mm
10:10 AM 39.0°F3.9°C 35.6°F2.0°C 88% 6.4 mph N10.3 kmh N 10.5 mph16.9 kmh 29.62 in1003.0 mb 0.00 in0.0 mm 0.00 in0.0 mm 0.00 in0.0 mm
10:20 AM 39.2°F4.0°C 35.6°F2.0°C 88% 9.0 mph N14.5 kmh N 15.2 mph24.5 kmh 29.62 in1003.0 mb 0.00 in0.0 mm 0.00 in0.0 mm 0.00 in0.0 mm
10:30 AM 39.2°F4.0°C 35.6°F2.0°C 87% 5.5 mph N8.9 kmh N 7.6 mph12.2 kmh 29.62 in1003.0 mb 0.00 in0.0 mm 0.00 in0.0 mm 0.00 in0.0 mm
10:40 AM 39.6°F4.2°C 37.4°F3.0°C 87% 3.3 mph N5.3 kmh N 5.4 mph8.7 kmh 29.62 in1003.0 mb 0.00 in0.0 mm 0.00 in0.0 mm 0.00 in0.0 mm
10:50 AM 39.7°F4.3°C 37.4°F3.0°C 88% 3.9 mph N6.3 kmh N 8.1 mph13.0 kmh 29.62 in1003.0 mb 0.00 in0.0 mm 0.00 in0.0 mm 0.00 in0.0 mm
11:00 AM 40.5°F4.7°C 37.4°F3.0°C 87% 6.5 mph N10.5 kmh N 8.1 mph13.0 kmh 29.62 in1003.0 mb 0.00 in0.0 mm 0.00 in0.0 mm 0.00 in0.0 mm
11:10 AM 40.5°F4.7°C 37.4°F3.0°C 87% 5.7 mph N9.2 kmh N 6.3 mph10.1 kmh 29.59 in1002.0 mb 0.00 in0.0 mm 0.00 in0.0 mm 0.00 in0.0 mm
11:20 AM 40.6°F4.8°C 37.4°F3.0°C 87% 4.2 mph N6.8 kmh N 4.9 mph7.9 kmh 29.59 in1002.0 mb 0.00 in0.0 mm 0.00 in0.0 mm 0.00 in0.0 mm
11:30 AM 41.4°F5.2°C 37.4°F3.0°C 87% 6.5 mph N10.5 kmh N 10.5 mph16.9 kmh 29.59 in1002.0 mb 0.00 in0.0 mm 0.00 in0.0 mm 0.00 in0.0 mm
11:40 AM 41.4°F5.2°C 37.4°F3.0°C 87% 10.5 mph N16.9 kmh N 10.5 mph16.9 kmh 29.56 in1001.0 mb 0.00 in0.0 mm 0.00 in0.0 mm 0.00 in0.0 mm
11:50 AM 41.0°F5.0°C 37.4°F3.0°C 87% 10.5 mph N16.9 kmh N 10.5 mph16.9 kmh 29.53 in1000.0 mb 0.00 in0.0 mm 0.00 in0.0 mm 0.00 in0.0 mm
12:00 PM 41.2°F5.1°C 37.4°F3.0°C 86% 10.5 mph N16.9 kmh N 10.5 mph16.9 kmh 29.53 in1000.0 mb 0.00 in0.0 mm 0.00 in0.0 mm 0.00 in0.0 mm
12:10 PM 41.2°F5.1°C 37.4°F3.0°C 86% 10.5 mph N16.9 kmh N 10.5 mph16.9 kmh 29.53 in1000.0 mb 0.00 in0.0 mm 0.00 in0.0 mm 0.00 in0.0 mm
12:20 PM 41.5°F5.3°C 37.4°F3.0°C 86% 10.5 mph N16.9 kmh N 10.5 mph16.9 kmh 29.50 in999.0 mb 0.00 in0.0 mm 0.00 in0.0 mm 0.00 in0.0 mm
12:30 PM 41.9°F5.5°C 39.2°F4.0°C 86% 8.1 mph N13.0 kmh N 8.1 mph13.0 kmh 29.50 in999.0 mb 0.00 in0.0 mm 0.00 in0.0 mm 0.00 in0.0 mm
12:50 PM 42.4°F5.8°C 39.2°F4.0°C 86% 8.1 mph N13.0 kmh N 8.1 mph13.0 kmh 29.47 in998.0 mb 0.00 in0.0 mm 0.00 in0.0 mm 0.00 in0.0 mm
01:00 PM 42.8°F6.0°C 39.2°F4.0°C 86% 8.1 mph N13.0 kmh N 8.1 mph13.0 kmh 29.47 in998.0 mb 0.00 in0.0 mm 0.00 in0.0 mm 0.00 in0.0 mm
01:10 PM 43.2°F6.2°C 39.2°F4.0°C 85% 8.1 mph N13.0 kmh N 8.1 mph13.0 kmh 29.45 in997.3 mb 0.00 in0.0 mm 0.00 in0.0 mm 0.00 in0.0 mm
01:20 PM 43.2°F6.2°C 39.2°F4.0°C 85% 8.1 mph N13.0 kmh N 8.1 mph13.0 kmh 29.41 in995.9 mb 0.00 in0.0 mm 0.00 in0.0 mm 0.00 in0.0 mm
01:30 PM 43.3°F6.3°C 39.2°F4.0°C 85% 8.1 mph N13.0 kmh N 8.1 mph13.0 kmh 29.41 in995.9 mb 0.00 in0.0 mm 0.00 in0.0 mm 0.00 in0.0 mm
01:40 PM 43.5°F6.4°C 39.2°F4.0°C 85% 8.1 mph N13.0 kmh N 8.1 mph13.0 kmh 29.39 in995.3 mb 0.00 in0.0 mm 0.00 in0.0 mm 0.00 in0.0 mm
01:50 PM 43.7°F6.5°C 41.0°F5.0°C 85% 9.3 mph N15.0 kmh N 11.0 mph17.7 kmh 29.39 in995.3 mb 0.00 in0.0 mm 0.00 in0.0 mm 0.00 in0.0 mm
02:00 PM 43.9°F6.6°C 41.0°F5.0°C 85% 10.6 mph N17.1 kmh N 14.8 mph23.8 kmh 29.39 in995.3 mb 0.00 in0.0 mm 0.00 in0.0 mm 0.00 in0.0 mm
02:10 PM 44.1°F6.7°C 41.0°F5.0°C 85% 9.8 mph N15.8 kmh N 10.7 mph17.2 kmh 29.36 in994.2 mb 0.00 in0.0 mm 0.00 in0.0 mm 0.00 in0.0 mm
02:20 PM 44.2°F6.8°C 41.0°F5.0°C 85% 9.5 mph N15.3 kmh N 10.7 mph17.2 kmh 29.33 in993.2 mb 0.00 in0.0 mm 0.00 in0.0 mm 0.00 in0.0 mm
02:30 PM 44.4°F6.9°C 41.0°F5.0°C 84% 12.1 mph N19.5 kmh N 15.4 mph24.8 kmh 29.33 in993.2 mb 0.00 in0.0 mm 0.00 in0.0 mm 0.00 in0.0 mm
02:40 PM 44.6°F7.0°C 41.0°F5.0°C 84% 15.4 mph N24.8 kmh N 15.4 mph24.8 kmh 29.33 in993.2 mb 0.00 in0.0 mm 0.00 in0.0 mm 0.00 in0.0 mm
02:50 PM 44.6°F7.0°C 41.0°F5.0°C 84% 10.7 mph N17.2 kmh N 10.7 mph17.2 kmh 29.30 in992.2 mb 0.00 in0.0 mm 0.00 in0.0 mm 0.00 in0.0 mm
03:00 PM 44.8°F7.1°C 39.2°F4.0°C 83% 10.7 mph N17.2 kmh N 10.7 mph17.2 kmh 29.30 in992.2 mb 0.00 in0.0 mm 0.00 in0.0 mm 0.00 in0.0 mm
03:10 PM 44.8°F7.1°C 39.2°F4.0°C 83% 10.7 mph N17.2 kmh N 10.7 mph17.2 kmh 29.27 in991.2 mb 0.00 in0.0 mm 0.00 in0.0 mm 0.00 in0.0 mm
03:20 PM 44.8°F7.1°C 39.2°F4.0°C 83% 10.7 mph N17.2 kmh N 10.7 mph17.2 kmh 29.24 in990.2 mb 0.00 in0.0 mm 0.00 in0.0 mm 0.00 in0.0 mm
03:30 PM 44.8°F7.1°C 39.2°F4.0°C 82% 10.7 mph N17.2 kmh N 10.7 mph17.2 kmh 29.24 in990.2 mb 0.00 in0.0 mm 0.00 in0.0 mm 0.00 in0.0 mm
03:40 PM 44.8°F7.1°C 39.2°F4.0°C 82% 10.7 mph N17.2 kmh N 10.7 mph17.2 kmh 29.24 in990.2 mb 0.00 in0.0 mm 0.00 in0.0 mm 0.00 in0.0 mm
03:50 PM 45.0°F7.2°C 41.0°F5.0°C 82% 10.7 mph N17.2 kmh N 10.7 mph17.2 kmh 29.21 in989.2 mb 0.00 in0.0 mm 0.00 in0.0 mm 0.00 in0.0 mm
04:00 PM 45.0°F7.2°C 41.0°F5.0°C 82% 13.2 mph N21.2 kmh N 13.2 mph21.2 kmh 29.21 in989.2 mb 0.00 in0.0 mm 0.00 in0.0 mm 0.00 in0.0 mm
04:10 PM 45.1°F7.3°C 41.0°F5.0°C 82% 13.2 mph N21.2 kmh N 13.2 mph21.2 kmh 29.21 in989.2 mb 0.00 in0.0 mm 0.00 in0.0 mm 0.00 in0.0 mm
04:20 PM 45.0°F7.2°C 41.0°F5.0°C 82% 14.3 mph N23.0 kmh N 23.5 mph37.8 kmh 29.18 in988.1 mb 0.00 in0.0 mm 0.00 in0.0 mm 0.00 in0.0 mm
04:30 PM 44.8°F7.1°C 39.2°F4.0°C 82% 11.6 mph N18.7 kmh N 16.8 mph27.0 kmh 29.18 in988.1 mb 0.00 in0.0 mm 0.00 in0.0 mm 0.00 in0.0 mm
04:40 PM 44.8°F7.1°C 39.2°F4.0°C 83% 13.4 mph N21.6 kmh N 26.6 mph42.8 kmh 29.15 in987.1 mb 0.00 in0.0 mm 0.00 in0.0 mm 0.00 in0.0 mm
04:50 PM 44.6°F7.0°C 39.2°F4.0°C 83% 11.8 mph N19.0 kmh N 21.9 mph35.2 kmh 29.15 in987.1 mb 0.00 in0.0 mm 0.00 in0.0 mm 0.00 in0.0 mm
05:00 PM 44.6°F7.0°C 39.2°F4.0°C 83% 9.4 mph N15.1 kmh N 13.9 mph22.4 kmh 29.15 in987.1 mb 0.06 in1.5 mm 0.07 in1.8 mm 0.06 in1.5 mm
05:10 PM 44.8°F7.1°C 39.2°F4.0°C 83% 11.6 mph N18.7 kmh N 17.2 mph27.7 kmh 29.12 in986.1 mb 0.06 in1.5 mm 0.00 in0.0 mm 0.06 in1.5 mm
05:20 PM 44.6°F7.0°C 39.2°F4.0°C 83% 11.9 mph N19.2 kmh N 32.9 mph52.9 kmh 29.09 in985.1 mb 0.06 in1.5 mm 0.00 in0.0 mm 0.06 in1.5 mm
05:30 PM 44.8°F7.1°C 39.2°F4.0°C 83% 14.9 mph N24.0 kmh N 25.7 mph41.4 kmh 29.09 in985.1 mb 0.06 in1.5 mm 0.00 in0.0 mm 0.06 in1.5 mm
05:40 PM 45.0°F7.2°C 41.0°F5.0°C 83% 13.1 mph N21.1 kmh N 20.6 mph33.2 kmh 29.09 in985.1 mb 0.06 in1.5 mm 0.00 in0.0 mm 0.06 in1.5 mm
05:50 PM 45.3°F7.4°C 41.0°F5.0°C 83% 17.7 mph N28.5 kmh N 22.1 mph35.6 kmh 29.06 in984.1 mb 0.06 in1.5 mm 0.00 in0.0 mm 0.06 in1.5 mm
06:00 PM 45.3°F7.4°C 41.0°F5.0°C 83% 16.2 mph N26.1 kmh N 27.5 mph44.3 kmh 29.06 in984.1 mb 0.00 in0.0 mm 0.00 in0.0 mm 0.06 in1.5 mm
06:10 PM 45.5°F7.5°C 41.0°F5.0°C 83% 15.3 mph N24.6 kmh N 24.6 mph39.6 kmh 29.06 in984.1 mb 0.00 in0.0 mm 0.00 in0.0 mm 0.06 in1.5 mm
06:20 PM 45.5°F7.5°C 41.0°F5.0°C 84% 19.7 mph N31.7 kmh N 29.3 mph47.2 kmh 29.06 in984.1 mb 0.00 in0.0 mm 0.00 in0.0 mm 0.06 in1.5 mm
06:30 PM 45.7°F7.6°C 41.0°F5.0°C 84% 21.4 mph N34.4 kmh N 29.3 mph47.2 kmh 29.06 in984.1 mb 0.00 in0.0 mm 0.00 in0.0 mm 0.06 in1.5 mm
06:40 PM 45.5°F7.5°C 41.0°F5.0°C 84% 12.6 mph N20.3 kmh N 19.9 mph32.0 kmh 29.03 in983.1 mb 0.00 in0.0 mm 0.00 in0.0 mm 0.06 in1.5 mm
06:50 PM 44.8°F7.1°C 41.0°F5.0°C 85% 8.7 mph N14.0 kmh N 12.1 mph19.5 kmh 29.09 in985.1 mb 0.07 in1.8 mm 0.42 in10.7 mm 0.13 in3.3 mm
07:00 PM 44.6°F7.0°C 41.0°F5.0°C 85% 7.6 mph N12.2 kmh N 10.7 mph17.2 kmh 29.09 in985.1 mb 0.07 in1.8 mm 0.00 in0.0 mm 0.13 in3.3 mm
07:10 PM 43.7°F6.5°C 41.0°F5.0°C 86% 7.6 mph N12.2 kmh N 9.8 mph15.8 kmh 29.06 in984.1 mb 0.07 in1.8 mm 0.00 in0.0 mm 0.13 in3.3 mm
07:20 PM 43.2°F6.2°C 39.2°F4.0°C 86% 7.6 mph N12.2 kmh N 11.0 mph17.7 kmh 29.06 in984.1 mb 0.07 in1.8 mm 0.00 in0.0 mm 0.13 in3.3 mm
07:30 PM 42.8°F6.0°C 39.2°F4.0°C 85% 10.3 mph N16.6 kmh N 12.3 mph19.8 kmh 29.06 in984.1 mb 0.07 in1.8 mm 0.00 in0.0 mm 0.13 in3.3 mm
07:40 PM 42.3°F5.7°C 39.2°F4.0°C 85% 6.1 mph N9.8 kmh N 7.8 mph12.6 kmh 29.06 in984.1 mb 0.07 in1.8 mm 0.00 in0.0 mm 0.13 in3.3 mm
07:50 PM 41.7°F5.4°C 37.4°F3.0°C 84% 4.1 mph N6.6 kmh N 8.1 mph13.0 kmh 29.06 in984.1 mb 0.00 in0.0 mm 0.00 in0.0 mm 0.13 in3.3 mm
08:00 PM 41.4°F5.2°C 37.4°F3.0°C 85% 3.3 mph N5.3 kmh N 5.4 mph8.7 kmh 29.06 in984.1 mb 0.00 in0.0 mm 0.00 in0.0 mm 0.13 in3.3 mm
08:10 PM 41.0°F5.0°C 37.4°F3.0°C 84% 5.7 mph N9.2 kmh N 9.6 mph15.4 kmh 29.09 in985.1 mb 0.00 in0.0 mm 0.00 in0.0 mm 0.13 in3.3 mm
08:20 PM 41.0°F5.0°C 37.4°F3.0°C 84% 6.9 mph N11.1 kmh N 6.9 mph11.1 kmh 29.09 in985.1 mb 0.00 in0.0 mm 0.00 in0.0 mm 0.13 in3.3 mm
08:30 PM 40.5°F4.7°C 35.6°F2.0°C 84% 5.0 mph N8.0 kmh N 6.9 mph11.1 kmh 29.09 in985.1 mb 0.00 in0.0 mm 0.00 in0.0 mm 0.13 in3.3 mm
08:40 PM 40.6°F4.8°C 37.4°F3.0°C 85% 3.2 mph N5.1 kmh N 4.9 mph7.9 kmh 29.09 in985.1 mb 0.00 in0.0 mm 0.00 in0.0 mm 0.13 in3.3 mm
08:50 PM 40.5°F4.7°C 37.4°F3.0°C 85% 4.9 mph N7.9 kmh N 5.4 mph8.7 kmh 29.09 in985.1 mb 0.00 in0.0 mm 0.00 in0.0 mm 0.13 in3.3 mm
09:00 PM 40.3°F4.6°C 37.4°F3.0°C 85% 4.7 mph N7.6 kmh N 6.3 mph10.1 kmh 29.09 in985.1 mb 0.00 in0.0 mm 0.00 in0.0 mm 0.13 in3.3 mm
09:10 PM 40.1°F4.5°C 37.4°F3.0°C 85% 6.8 mph N10.9 kmh N 8.7 mph14.0 kmh 29.06 in984.1 mb 0.00 in0.0 mm 0.00 in0.0 mm 0.13 in3.3 mm
09:20 PM 39.9°F4.4°C 35.6°F2.0°C 85% 6.9 mph N11.1 kmh N 8.7 mph14.0 kmh 29.06 in984.1 mb 0.00 in0.0 mm 0.00 in0.0 mm 0.13 in3.3 mm
09:30 PM 39.6°F4.2°C 35.6°F2.0°C 85% 3.9 mph N6.3 kmh N 5.4 mph8.7 kmh 29.06 in984.1 mb 0.00 in0.0 mm 0.00 in0.0 mm 0.13 in3.3 mm
09:40 PM 39.6°F4.2°C 35.6°F2.0°C 85% 5.6 mph N9.0 kmh N 5.6 mph9.0 kmh 29.06 in984.1 mb 0.00 in0.0 mm 0.00 in0.0 mm 0.13 in3.3 mm
09:50 PM 39.6°F4.2°C 35.6°F2.0°C 85% 4.3 mph N6.9 kmh N 5.6 mph9.0 kmh 29.06 in984.1 mb 0.00 in0.0 mm 0.00 in0.0 mm 0.13 in3.3 mm
10:00 PM 39.6°F4.2°C 35.6°F2.0°C 85% 5.2 mph N8.4 kmh N 6.5 mph10.5 kmh 29.06 in984.1 mb 0.00 in0.0 mm 0.00 in0.0 mm 0.13 in3.3 mm
10:10 PM 39.7°F4.3°C 35.6°F2.0°C 85% 6.5 mph N10.5 kmh N 6.5 mph10.5 kmh 29.06 in984.1 mb 0.00 in0.0 mm 0.00 in0.0 mm 0.13 in3.3 mm
10:20 PM 39.7°F4.3°C 35.6°F2.0°C 85% 6.5 mph N10.5 kmh N 6.5 mph10.5 kmh 29.09 in985.1 mb 0.00 in0.0 mm 0.00 in0.0 mm 0.13 in3.3 mm
10:30 PM 39.7°F4.3°C 35.6°F2.0°C 85% 6.5 mph N10.5 kmh N 6.5 mph10.5 kmh 29.09 in985.1 mb 0.00 in0.0 mm 0.00 in0.0 mm 0.13 in3.3 mm
10:40 PM 39.7°F4.3°C 35.6°F2.0°C 85% 5.9 mph N9.5 kmh N 6.5 mph10.5 kmh 29.09 in985.1 mb 0.00 in0.0 mm 0.00 in0.0 mm 0.13 in3.3 mm
10:50 PM 39.7°F4.3°C 35.6°F2.0°C 85% 5.3 mph N8.5 kmh N 7.6 mph12.2 kmh 29.09 in985.1 mb 0.00 in0.0 mm 0.00 in0.0 mm 0.13 in3.3 mm
11:00 PM 39.7°F4.3°C 35.6°F2.0°C 85% 2.7 mph N4.3 kmh N 2.7 mph4.3 kmh 29.09 in985.1 mb 0.00 in0.0 mm 0.00 in0.0 mm 0.13 in3.3 mm
11:10 PM 39.6°F4.2°C 35.6°F2.0°C 85% 2.7 mph N4.3 kmh N 2.7 mph4.3 kmh 29.09 in985.1 mb 0.00 in0.0 mm 0.00 in0.0 mm 0.13 in3.3 mm
11:20 PM 39.6°F4.2°C 35.6°F2.0°C 85% 2.7 mph N4.3 kmh N 2.7 mph4.3 kmh 29.09 in985.1 mb 0.00 in0.0 mm 0.00 in0.0 mm 0.13 in3.3 mm
11:30 PM 39.6°F4.2°C 35.6°F2.0°C 85% 4.8 mph N7.7 kmh N 7.4 mph11.9 kmh 29.09 in985.1 mb 0.00 in0.0 mm 0.00 in0.0 mm 0.13 in3.3 mm
11:40 PM 39.7°F4.3°C 35.6°F2.0°C 85% 5.4 mph N8.7 kmh N 5.4 mph8.7 kmh 29.09 in985.1 mb 0.00 in0.0 mm 0.00 in0.0 mm 0.13 in3.3 mm
11:50 PM 39.9°F4.4°C 35.6°F2.0°C 85% 5.4 mph N8.7 kmh N 5.6 mph9.0 kmh 29.09 in985.1 mb 0.00 in0.0 mm 0.00 in0.0 mm 0.13 in3.3 mm